Time;durP1;ratioP1;P1;durP2;ratioP2;P2;SDS_P1;SDS_P2;PMS_P1;PMS_P2;Temp;Humidity;BMP_temperature;BMP_pressure;BME280_temperature;BME280_humidity;BME280_pressure;Samples;Min_cycle;Max_cycle;Signal;HPM_P1;HPM_P2
2022/03/03 00:00:19;;;;;;;2.47;1.20;;;21.10;54.00;;;;;;5069255;28;20191;-51
2022/03/03 00:02:50;;;;;;;4.60;1.65;;;21.20;54.10;;;;;;5069602;28;20693;-48
2022/03/03 00:05:21;;;;;;;2.65;1.23;;;21.20;54.10;;;;;;5069316;28;20203;-49
2022/03/03 00:07:54;;;;;;;3.00;1.50;;;21.20;54.00;;;;;;5069732;28;20206;-50
2022/03/03 00:10:24;;;;;;;3.40;1.58;;;21.20;54.00;;;;;;5067575;28;20701;-49
2022/03/03 00:12:55;;;;;;;3.80;1.40;;;21.30;54.70;;;;;;5067648;28;20273;-48
2022/03/03 00:15:26;;;;;;;3.03;1.35;;;21.30;54.20;;;;;;5068509;28;20198;-51
2022/03/03 00:17:56;;;;;;;3.85;1.48;;;21.30;54.20;;;;;;5068902;28;20191;-50
2022/03/03 00:20:27;;;;;;;3.35;1.10;;;21.40;54.30;;;;;;5069367;28;20248;-49
2022/03/03 00:22:59;;;;;;;2.72;1.27;;;21.40;54.30;;;;;;5067575;28;20219;-49
2022/03/03 00:25:30;;;;;;;3.38;1.30;;;21.40;54.20;;;;;;5069035;28;20198;-51
2022/03/03 00:28:01;;;;;;;2.65;1.13;;;21.50;54.30;;;;;;5068442;28;20256;-51
2022/03/03 00:30:31;;;;;;;4.57;1.90;;;21.50;54.30;;;;;;5079730;23;20249;-57
2022/03/03 00:33:02;;;;;;;4.15;1.50;;;21.50;54.30;;;;;;5068756;28;20226;-57
2022/03/03 00:35:33;;;;;;;3.03;1.17;;;21.50;54.20;;;;;;5068718;28;20191;-56
2022/03/03 00:38:05;;;;;;;3.63;1.27;;;21.60;54.30;;;;;;5067363;28;20248;-57
2022/03/03 00:40:36;;;;;;;2.25;1.30;;;21.60;54.30;;;;;;5068543;28;20190;-56
2022/03/03 00:43:08;;;;;;;3.20;1.40;;;21.60;54.10;;;;;;5067824;28;20207;-56
2022/03/03 00:45:39;;;;;;;4.00;1.33;;;21.70;54.00;;;;;;5068435;28;20282;-56
2022/03/03 00:48:09;;;;;;;4.60;1.27;;;21.70;54.00;;;;;;5068228;28;20725;-56
2022/03/03 00:50:40;;;;;;;3.35;1.10;;;21.80;54.00;;;;;;5068250;28;20291;-57
2022/03/03 00:53:13;;;;;;;2.10;1.10;;;21.80;53.90;;;;;;5068237;28;20226;-57
2022/03/03 00:55:44;;;;;;;3.45;1.45;;;21.80;53.90;;;;;;5068864;28;20191;-56
2022/03/03 00:58:15;;;;;;;2.28;1.30;;;21.90;53.90;;;;;;5067194;28;20195;-55
2022/03/03 01:00:45;;;;;;;2.50;1.23;;;21.90;53.90;;;;;;5068585;28;20195;-55
2022/03/03 01:03:16;;;;;;;3.08;1.20;;;21.90;53.90;;;;;;5068418;28;20215;-56
2022/03/03 01:05:47;;;;;;;2.72;1.27;;;21.90;53.90;;;;;;5068962;28;20698;-55
2022/03/03 01:08:19;;;;;;;4.82;1.45;;;22.00;54.00;;;;;;5068876;28;20205;-54
2022/03/03 01:10:50;;;;;;;2.50;1.30;;;22.10;54.00;;;;;;5067521;28;20272;-53
2022/03/03 01:13:22;;;;;;;2.33;1.38;;;22.10;54.00;;;;;;5066422;28;20210;-55
2022/03/03 01:15:53;;;;;;;1.92;1.13;;;22.10;53.90;;;;;;5067898;28;20201;-53
2022/03/03 01:18:24;;;;;;;3.30;1.40;;;22.10;54.00;;;;;;5067842;28;20563;-54
2022/03/03 01:20:56;;;;;;;2.55;1.33;;;22.10;54.00;;;;;;5067723;28;20252;-56
2022/03/03 01:23:28;;;;;;;2.22;1.33;;;22.20;54.00;;;;;;5067730;28;20297;-55
2022/03/03 01:26:00;;;;;;;3.60;1.35;;;22.20;54.00;;;;;;5068070;28;20801;-57
2022/03/03 01:28:31;;;;;;;1.70;1.40;;;22.20;54.00;;;;;;5067929;28;20251;-56
2022/03/03 01:31:02;;;;;;;3.47;1.20;;;22.30;54.10;;;;;;5067802;28;20214;-57
2022/03/03 01:33:32;;;;;;;4.63;1.45;;;22.30;54.00;;;;;;5067424;28;20214;-56
2022/03/03 01:36:03;;;;;;;1.40;1.08;;;22.30;53.90;;;;;;5068349;28;20621;-57
2022/03/03 01:38:35;;;;;;;3.00;1.35;;;22.30;53.80;;;;;;5068055;28;20195;-57
2022/03/03 01:41:06;;;;;;;2.20;1.15;;;22.40;53.80;;;;;;5067569;28;20256;-57
2022/03/03 01:43:37;;;;;;;2.08;1.15;;;22.40;53.70;;;;;;5068257;28;20230;-57
2022/03/03 01:46:08;;;;;;;2.90;1.30;;;22.50;53.70;;;;;;5067471;28;20187;-56
2022/03/03 01:48:38;;;;;;;2.55;1.20;;;22.50;53.60;;;;;;5067987;28;20195;-56
2022/03/03 01:51:09;;;;;;;2.85;1.00;;;22.50;53.60;;;;;;5064967;28;20214;-57
2022/03/03 01:53:42;;;;;;;1.73;1.10;;;22.50;53.50;;;;;;5066496;28;20783;-55
2022/03/03 01:56:13;;;;;;;1.23;1.10;;;22.60;53.50;;;;;;5067613;28;20223;-57
2022/03/03 01:58:44;;;;;;;4.10;1.52;;;22.60;53.40;;;;;;5067688;28;20187;-55
2022/03/03 02:01:17;;;;;;;3.53;1.30;;;22.60;53.40;;;;;;5067444;28;20191;-57
2022/03/03 02:03:48;;;;;;;1.77;1.33;;;22.60;53.30;;;;;;5062448;28;20225;-57
2022/03/03 02:06:21;;;;;;;4.00;1.50;;;22.70;53.40;;;;;;5067451;28;20199;-58
2022/03/03 02:08:55;;;;;;;3.22;1.55;;;22.70;53.50;;;;;;5067810;28;20198;-56
2022/03/03 02:11:26;;;;;;;4.45;1.80;;;22.80;53.40;;;;;;5068327;28;20223;-57
2022/03/03 02:13:57;;;;;;;3.75;1.67;;;22.80;53.50;;;;;;5066976;28;20261;-56
2022/03/03 02:16:28;;;;;;;3.78;1.60;;;22.80;53.30;;;;;;5064654;28;20214;-57
2022/03/03 02:18:58;;;;;;;3.72;1.60;;;22.80;53.30;;;;;;5067459;28;20214;-56
2022/03/03 02:21:32;;;;;;;5.28;2.03;;;22.90;53.20;;;;;;5067126;28;20240;-56
2022/03/03 02:24:03;;;;;;;4.18;1.80;;;22.90;53.20;;;;;;5065049;28;20281;-56
2022/03/03 02:26:34;;;;;;;3.85;1.50;;;22.90;53.10;;;;;;5067382;28;20672;-57
2022/03/03 02:29:08;;;;;;;4.90;1.80;;;22.90;53.00;;;;;;5067684;28;20199;-55
2022/03/03 02:31:39;;;;;;;2.50;1.48;;;23.00;53.00;;;;;;5066824;28;20224;-56
2022/03/03 02:34:10;;;;;;;3.33;1.40;;;23.00;52.90;;;;;;5066680;28;20203;-58
2022/03/03 02:36:42;;;;;;;2.75;1.48;;;23.00;52.80;;;;;;5067023;28;20642;-57
2022/03/03 02:39:13;;;;;;;4.05;1.40;;;23.00;52.80;;;;;;5067664;28;20207;-56
2022/03/03 02:41:43;;;;;;;2.13;1.13;;;23.10;52.70;;;;;;5066674;28;20211;-57
2022/03/03 02:44:14;;;;;;;3.47;1.45;;;23.10;52.60;;;;;;5066093;28;20809;-56
2022/03/03 02:46:45;;;;;;;3.63;1.55;;;23.10;52.40;;;;;;5070488;28;20199;-57
2022/03/03 02:49:15;;;;;;;2.97;1.40;;;23.20;52.40;;;;;;5071430;28;20201;-55
2022/03/03 02:51:48;;;;;;;4.72;1.60;;;23.20;52.20;;;;;;5069925;28;20226;-56
2022/03/03 02:54:18;;;;;;;4.05;1.65;;;23.30;52.20;;;;;;5070668;28;20222;-56
2022/03/03 02:59:36;;;;;;;3.28;1.40;;;23.30;52.00;;;;;;5070184;28;20221;-56
2022/03/03 03:02:07;;;;;;;6.22;1.65;;;23.40;52.00;;;;;;5070645;28;20219;-57
2022/03/03 03:04:37;;;;;;;3.95;1.42;;;23.30;51.90;;;;;;5069972;28;20248;-54
2022/03/03 03:07:10;;;;;;;4.43;1.13;;;23.40;51.80;;;;;;5070117;28;20712;-57
2022/03/03 03:09:40;;;;;;;3.78;1.38;;;23.40;51.80;;;;;;5069832;28;20244;-57
2022/03/03 03:12:11;;;;;;;3.17;1.30;;;23.40;51.80;;;;;;5070205;28;20222;-56
2022/03/03 03:14:42;;;;;;;1.92;1.20;;;23.50;51.80;;;;;;5070174;28;20248;-57
2022/03/03 03:17:13;;;;;;;3.92;1.60;;;23.50;51.70;;;;;;5070494;28;20195;-57
2022/03/03 03:19:43;;;;;;;2.80;1.60;;;23.50;51.70;;;;;;5070601;28;20205;-57
2022/03/03 03:22:16;;;;;;;2.47;1.38;;;23.50;51.70;;;;;;5069001;28;20313;-56
2022/03/03 03:24:46;;;;;;;3.80;1.52;;;23.60;51.60;;;;;;5070031;28;20533;-56
2022/03/03 03:27:17;;;;;;;3.53;1.42;;;23.60;51.50;;;;;;5070337;28;20547;-57
2022/03/03 03:29:48;;;;;;;4.15;1.30;;;23.70;51.50;;;;;;5070562;28;20253;-55
2022/03/03 03:32:19;;;;;;;3.20;1.40;;;23.70;51.40;;;;;;5067026;28;20279;-51
2022/03/03 03:34:49;;;;;;;2.75;1.42;;;23.70;51.20;;;;;;5069411;28;20248;-56
2022/03/03 03:37:22;;;;;;;3.45;1.65;;;23.70;51.10;;;;;;5069628;28;20546;-54
2022/03/03 03:39:52;;;;;;;4.70;1.52;;;23.80;51.10;;;;;;5069875;28;20198;-56
2022/03/03 03:42:23;;;;;;;5.10;1.30;;;23.80;51.00;;;;;;5069040;28;21681;-54
2022/03/03 03:44:54;;;;;;;2.00;1.38;;;23.80;51.00;;;;;;5068805;28;20210;-54
2022/03/03 03:47:24;;;;;;;3.08;1.33;;;23.90;51.10;;;;;;5069861;28;20300;-56
2022/03/03 03:49:55;;;;;;;2.42;1.10;;;23.90;51.00;;;;;;5069173;28;20195;-55
2022/03/03 03:52:27;;;;;;;4.25;1.65;;;23.90;51.00;;;;;;5066668;28;20906;-56
2022/03/03 03:54:58;;;;;;;3.72;1.38;;;24.00;51.00;;;;;;5067670;28;20191;-56
2022/03/03 03:57:29;;;;;;;2.08;1.30;;;24.00;51.00;;;;;;5069558;28;20191;-56
2022/03/03 03:59:59;;;;;;;2.75;1.38;;;24.00;50.90;;;;;;5068681;28;20194;-57
2022/03/03 04:02:30;;;;;;;2.47;1.33;;;24.00;50.90;;;;;;5067156;28;20637;-56
2022/03/03 04:05:01;;;;;;;2.33;1.23;;;24.10;50.90;;;;;;5069411;28;20666;-56
2022/03/03 04:07:33;;;;;;;5.30;1.52;;;24.10;50.90;;;;;;5069382;28;20198;-57
2022/03/03 04:10:04;;;;;;;2.75;1.20;;;24.10;50.80;;;;;;5068776;28;20210;-57
2022/03/03 04:12:34;;;;;;;4.22;1.20;;;24.20;50.80;;;;;;5067637;28;20735;-56
2022/03/03 04:15:05;;;;;;;3.25;1.33;;;24.20;50.80;;;;;;5068706;28;20186;-57
2022/03/03 04:17:36;;;;;;;3.10;1.48;;;24.20;50.80;;;;;;5069045;28;20680;-56
2022/03/03 04:20:07;;;;;;;3.55;1.67;;;24.20;50.70;;;;;;5068867;28;20191;-55
2022/03/03 04:22:40;;;;;;;4.05;1.58;;;24.20;50.70;;;;;;5067757;28;20222;-56
2022/03/03 04:25:12;;;;;;;2.78;1.35;;;24.30;50.70;;;;;;5065736;28;20271;-57
2022/03/03 04:27:43;;;;;;;3.28;1.42;;;24.30;50.70;;;;;;5068754;28;20639;-56
2022/03/03 04:30:15;;;;;;;2.63;1.50;;;24.30;50.60;;;;;;5068793;28;20203;-58
2022/03/03 04:32:45;;;;;;;4.45;1.45;;;24.30;50.60;;;;;;5040425;28;20628;-56
2022/03/03 04:35:16;;;;;;;5.40;1.40;;;24.40;50.60;;;;;;5068945;28;20268;-57
2022/03/03 04:37:48;;;;;;;2.78;1.35;;;24.30;50.50;;;;;;5068842;28;20655;-56
2022/03/03 04:40:19;;;;;;;3.10;1.40;;;24.40;50.50;;;;;;5068630;28;20678;-57
2022/03/03 04:42:50;;;;;;;3.95;1.48;;;24.40;50.50;;;;;;5068235;28;20211;-56
2022/03/03 04:45:21;;;;;;;3.20;1.50;;;24.40;50.50;;;;;;5068058;28;20687;-56
2022/03/03 04:47:52;;;;;;;3.17;1.50;;;24.40;50.40;;;;;;5068540;28;20191;-57
2022/03/03 04:50:22;;;;;;;2.55;1.25;;;24.40;50.30;;;;;;5066371;28;20194;-54
2022/03/03 04:52:55;;;;;;;2.92;1.48;;;24.40;50.40;;;;;;5067196;28;20288;-56
2022/03/03 04:55:26;;;;;;;3.83;1.60;;;24.50;50.40;;;;;;5068555;28;20199;-55
2022/03/03 04:57:56;;;;;;;4.38;1.60;;;24.50;50.50;;;;;;5068237;28;20256;-56
2022/03/03 05:03:49;;;;;;;2.05;1.02;;;24.50;50.50;;;;;;5068254;28;20194;-53
2022/03/03 05:06:19;;;;;;;5.60;1.83;;;24.50;50.50;;;;;;5068645;28;20221;-51
2022/03/03 05:08:52;;;;;;;2.63;1.52;;;24.50;50.50;;;;;;5066631;28;20195;-51
2022/03/03 05:11:23;;;;;;;3.50;1.50;;;24.60;50.50;;;;;;5067727;28;20712;-51
2022/03/03 05:13:53;;;;;;;3.45;1.65;;;24.60;50.50;;;;;;5066563;28;20194;-48
2022/03/03 05:16:24;;;;;;;3.45;1.60;;;24.60;50.50;;;;;;5068015;28;20195;-55
2022/03/03 05:18:54;;;;;;;2.30;1.10;;;24.70;50.50;;;;;;5068321;28;20218;-47
2022/03/03 05:21:25;;;;;;;2.50;1.38;;;24.70;50.50;;;;;;5066578;28;20199;-56
2022/03/03 05:23:58;;;;;;;3.70;1.63;;;24.70;50.40;;;;;;5067800;28;20203;-56
2022/03/03 05:26:29;;;;;;;2.95;1.15;;;24.70;50.30;;;;;;5067230;28;20195;-51
2022/03/03 05:28:59;;;;;;;2.90;1.33;;;24.70;50.30;;;;;;5068258;28;20272;-48
2022/03/03 05:31:30;;;;;;;2.80;1.40;;;24.80;50.30;;;;;;5067977;28;20599;-49
2022/03/03 05:34:03;;;;;;;4.13;1.30;;;24.80;50.30;;;;;;5067409;28;20191;-55
2022/03/03 05:36:36;;;;;;;3.88;1.50;;;24.80;50.30;;;;;;5067237;28;20678;-58
2022/03/03 05:39:10;;;;;;;4.25;1.40;;;24.90;50.20;;;;;;5068153;28;20662;-48
2022/03/03 05:41:41;;;;;;;2.58;1.30;;;24.90;50.10;;;;;;5067732;28;20295;-50
2022/03/03 05:44:14;;;;;;;4.68;1.42;;;24.90;50.00;;;;;;5067853;28;20268;-53
2022/03/03 05:46:45;;;;;;;1.80;1.30;;;24.90;50.00;;;;;;5067813;28;20206;-50
2022/03/03 05:49:19;;;;;;;3.63;1.17;;;24.90;50.00;;;;;;5067377;28;20249;-57
2022/03/03 05:51:49;;;;;;;2.67;1.27;;;24.90;50.60;;;;;;5066531;28;20219;-54
2022/03/03 05:54:22;;;;;;;3.92;1.42;;;24.90;50.00;;;;;;5066262;28;20197;-58
2022/03/03 05:56:55;;;;;;;3.42;1.30;;;24.90;49.90;;;;;;5067482;28;20199;-57
2022/03/03 05:59:27;;;;;;;5.30;1.40;;;24.90;49.90;;;;;;5066271;28;20381;-57
2022/03/03 06:01:59;;;;;;;2.65;1.35;;;25.00;50.50;;;;;;5067142;28;20226;-57
2022/03/03 06:04:32;;;;;;;3.47;1.50;;;25.00;50.00;;;;;;5066881;28;20207;-52
2022/03/03 06:07:08;;;;;;;2.67;1.10;;;25.00;49.90;;;;;;5066794;28;20241;-57
2022/03/03 06:09:41;;;;;;;2.08;1.15;;;25.00;49.90;;;;;;5067295;28;20198;-55
2022/03/03 06:12:19;;;;;;;1.88;1.20;;;25.00;50.00;;;;;;5066950;28;20226;-57
2022/03/03 06:14:55;;;;;;;1.88;1.10;;;25.00;50.10;;;;;;5065793;28;20687;-56
2022/03/03 06:17:27;;;;;;;2.63;1.42;;;25.00;50.00;;;;;;5067141;28;20658;-56
2022/03/03 06:20:01;;;;;;;3.03;1.40;;;24.90;50.00;;;;;;5067252;28;20199;-56
2022/03/03 06:22:31;;;;;;;2.90;1.70;;;25.00;50.00;;;;;;5068944;28;20222;-57
2022/03/03 06:25:05;;;;;;;3.03;1.30;;;24.90;49.80;;;;;;5070450;28;20198;-56
2022/03/03 06:27:36;;;;;;;3.30;1.77;;;25.00;49.90;;;;;;5070709;28;20195;-56
2022/03/03 06:30:07;;;;;;;2.42;1.52;;;24.90;49.80;;;;;;5070902;28;20206;-57
2022/03/03 06:32:38;;;;;;;3.08;1.80;;;24.90;49.80;;;;;;5069805;28;20227;-57
2022/03/03 06:35:09;;;;;;;2.53;1.40;;;24.90;49.80;;;;;;5070687;28;20195;-56
2022/03/03 06:37:40;;;;;;;2.75;1.63;;;24.90;49.90;;;;;;5070292;28;20195;-57
2022/03/03 06:40:13;;;;;;;2.83;1.48;;;24.90;50.00;;;;;;5071043;28;20191;-57
2022/03/03 06:42:44;;;;;;;3.33;1.75;;;24.80;50.00;;;;;;5069996;28;20222;-58
2022/03/03 06:45:14;;;;;;;3.95;1.60;;;24.90;50.10;;;;;;5070746;28;20199;-57
2022/03/03 06:47:46;;;;;;;2.72;1.50;;;24.80;50.00;;;;;;5071564;28;20222;-59
2022/03/03 06:50:19;;;;;;;2.60;1.42;;;24.80;50.00;;;;;;5059921;28;20526;-55
2022/03/03 06:52:51;;;;;;;3.75;1.58;;;24.80;50.00;;;;;;5051288;28;20691;-60
2022/03/03 06:55:25;;;;;;;2.40;1.52;;;24.80;50.00;;;;;;5051071;28;20195;-57
2022/03/03 06:57:58;;;;;;;4.03;1.70;;;24.80;50.10;;;;;;5051275;28;20206;-58
2022/03/03 07:00:31;;;;;;;5.50;1.75;;;24.80;50.20;;;;;;5051474;28;20249;-57
2022/03/03 07:03:02;;;;;;;2.97;1.73;;;24.80;50.20;;;;;;5052059;28;20306;-58
2022/03/03 07:05:34;;;;;;;3.90;1.63;;;24.70;50.20;;;;;;5051951;28;20199;-58
2022/03/03 07:08:04;;;;;;;3.80;1.60;;;24.70;50.20;;;;;;5052311;28;20306;-57
2022/03/03 07:10:38;;;;;;;4.97;1.80;;;24.70;50.10;;;;;;5052387;28;20199;-57
2022/03/03 07:13:09;;;;;;;2.83;1.77;;;24.70;50.20;;;;;;5051759;28;20232;-57
2022/03/03 07:15:49;;;;;;;2.90;1.70;;;24.60;50.20;;;;;;5052171;28;20222;-56
2022/03/03 07:18:21;;;;;;;4.45;1.88;;;24.60;50.20;;;;;;5051182;28;20282;-57
2022/03/03 07:21:04;;;;;;;3.38;1.67;;;24.60;50.20;;;;;;5050395;28;20269;-56
2022/03/03 07:23:39;;;;;;;4.40;1.75;;;24.50;50.20;;;;;;5051183;28;20649;-58
2022/03/03 07:26:16;;;;;;;4.60;1.77;;;24.60;50.30;;;;;;5051166;28;20725;-58
2022/03/03 07:28:53;;;;;;;3.05;1.60;;;24.50;50.40;;;;;;5051421;28;20191;-57
2022/03/03 07:31:25;;;;;;;4.07;1.60;;;24.50;50.40;;;;;;5051022;28;20199;-57
2022/03/03 07:33:57;;;;;;;4.45;1.80;;;24.50;50.40;;;;;;5050552;28;20219;-57
2022/03/03 07:36:30;;;;;;;3.90;1.58;;;24.40;50.30;;;;;;5050703;28;20192;-54
2022/03/03 07:39:02;;;;;;;3.92;1.58;;;24.40;50.40;;;;;;5051108;28;20278;-57
2022/03/03 07:41:35;;;;;;;2.35;1.48;;;24.40;50.40;;;;;;5051125;28;20207;-57
2022/03/03 07:44:06;;;;;;;3.83;2.08;;;24.40;50.50;;;;;;5050434;28;20282;-57
2022/03/03 07:46:37;;;;;;;4.80;1.77;;;24.40;50.50;;;;;;5050442;28;20199;-57
2022/03/03 07:49:09;;;;;;;2.22;1.20;;;24.40;50.50;;;;;;5051253;28;20552;-57
2022/03/03 07:51:40;;;;;;;2.92;1.52;;;24.30;50.40;;;;;;5050529;28;21101;-57
2022/03/03 07:54:11;;;;;;;2.40;1.58;;;24.30;50.40;;;;;;5050837;28;20277;-57
2022/03/03 07:56:47;;;;;;;3.50;1.63;;;24.20;50.30;;;;;;5050544;28;20198;-57
2022/03/03 07:59:20;;;;;;;3.42;1.67;;;24.20;50.40;;;;;;5050700;28;20199;-57
2022/03/03 08:01:53;;;;;;;2.90;1.63;;;24.20;50.40;;;;;;5050576;28;20280;-57
2022/03/03 08:04:28;;;;;;;3.00;1.30;;;24.20;50.40;;;;;;5050914;28;20211;-58
2022/03/03 08:07:05;;;;;;;2.33;1.38;;;24.20;50.40;;;;;;5050178;28;20202;-58
2022/03/03 08:09:38;;;;;;;3.08;1.58;;;24.10;50.40;;;;;;5038693;28;20219;-55
2022/03/03 08:12:12;;;;;;;2.80;1.50;;;24.10;50.50;;;;;;5030915;28;20216;-58
2022/03/03 08:14:43;;;;;;;2.92;1.52;;;24.10;50.50;;;;;;5030552;28;20655;-57
2022/03/03 08:17:18;;;;;;;4.10;1.75;;;24.00;50.50;;;;;;5030221;28;20199;-57
2022/03/03 08:19:48;;;;;;;3.72;1.80;;;24.00;50.50;;;;;;5039802;28;20191;-57
2022/03/03 08:22:21;;;;;;;4.20;1.75;;;24.00;50.60;;;;;;5049751;28;20220;-57
2022/03/03 08:24:51;;;;;;;2.40;1.30;;;23.90;50.50;;;;;;5050369;28;20206;-57
2022/03/03 08:27:24;;;;;;;3.28;1.50;;;23.90;50.50;;;;;;5050215;28;20261;-59
2022/03/03 08:29:56;;;;;;;4.30;1.50;;;23.90;50.60;;;;;;5046182;28;20275;-53
2022/03/03 08:35:19;;;;;;;3.17;1.52;;;23.80;50.60;;;;;;5847439;23;20715;-52
2022/03/03 08:38:00;;;;;;;2.53;1.33;;;23.80;50.60;;;;;;5046491;28;20213;-49
2022/03/03 08:40:37;;;;;;;3.25;1.63;;;23.70;50.60;;;;;;5043558;28;20551;-53
2022/03/03 08:43:20;;;;;;;4.20;1.73;;;23.70;50.60;;;;;;5058151;28;20882;-48
2022/03/03 08:45:54;;;;;;;3.10;1.60;;;23.70;50.70;;;;;;5064409;28;20276;-49
2022/03/03 08:48:30;;;;;;;3.35;1.70;;;23.60;50.70;;;;;;5064557;28;20585;-49
2022/03/03 08:51:07;;;;;;;3.55;1.48;;;23.60;50.70;;;;;;5065027;28;20567;-49
2022/03/03 08:53:40;;;;;;;3.13;1.48;;;23.60;50.80;;;;;;5063602;28;20678;-49
2022/03/03 08:56:15;;;;;;;2.80;1.30;;;23.50;50.80;;;;;;5064664;28;20518;-52
2022/03/03 08:58:53;;;;;;;2.95;1.50;;;23.50;50.80;;;;;;5063535;28;20214;-49
2022/03/03 09:01:27;;;;;;;2.35;1.30;;;23.50;51.00;;;;;;5064789;28;20186;-50
2022/03/03 09:04:04;;;;;;;2.60;1.50;;;23.50;51.10;;;;;;5064040;28;20576;-49
2022/03/03 09:06:37;;;;;;;3.17;1.58;;;23.50;51.20;;;;;;5064246;28;20201;-49
2022/03/03 09:09:12;;;;;;;3.78;1.58;;;23.40;51.20;;;;;;5062390;28;20581;-48
2022/03/03 09:11:48;;;;;;;3.63;1.60;;;23.40;51.80;;;;;;5063810;28;20233;-49
2022/03/03 09:14:27;;;;;;;3.60;1.60;;;23.40;51.30;;;;;;5064032;28;20316;-49
2022/03/03 09:17:04;;;;;;;2.38;1.33;;;23.40;51.30;;;;;;5063806;28;20840;-49
2022/03/03 09:19:39;;;;;;;2.67;1.40;;;23.40;51.30;;;;;;5062515;28;21253;-48
2022/03/03 09:22:14;;;;;;;1.77;1.30;;;23.30;51.30;;;;;;5063411;28;20279;-50
2022/03/03 09:24:52;;;;;;;2.92;1.42;;;23.30;51.30;;;;;;5063668;28;20303;-49
2022/03/03 09:27:25;;;;;;;3.55;1.40;;;23.30;51.30;;;;;;5063999;28;20191;-48
2022/03/03 09:30:03;;;;;;;3.92;1.52;;;23.30;51.20;;;;;;5063068;28;20288;-48
2022/03/03 09:32:36;;;;;;;2.55;1.40;;;23.20;51.20;;;;;;5064896;28;20550;-49
2022/03/03 09:35:07;;;;;;;3.92;1.17;;;23.20;51.20;;;;;;5064172;28;20233;-49
2022/03/03 09:37:38;;;;;;;1.70;1.20;;;23.20;51.30;;;;;;5065984;28;20195;-48
2022/03/03 09:40:11;;;;;;;2.50;1.40;;;23.10;51.30;;;;;;5065626;28;20632;-50
2022/03/03 09:42:42;;;;;;;2.85;1.38;;;23.10;51.30;;;;;;5064911;28;20686;-50
2022/03/03 09:45:15;;;;;;;2.45;1.40;;;23.00;51.30;;;;;;5064703;28;20244;-49
2022/03/03 09:47:46;;;;;;;2.58;1.42;;;23.00;51.30;;;;;;5065047;28;20205;-51
2022/03/03 09:50:16;;;;;;;2.97;1.58;;;23.00;51.30;;;;;;5064386;28;20202;-50
2022/03/03 09:52:47;;;;;;;3.63;1.52;;;22.90;51.40;;;;;;5064109;28;20214;-49
2022/03/03 09:55:17;;;;;;;2.92;1.45;;;22.90;51.40;;;;;;5069614;28;20199;-49
2022/03/03 09:57:49;;;;;;;3.42;1.48;;;22.90;51.40;;;;;;5071926;28;20191;-48
2022/03/03 10:00:22;;;;;;;2.72;1.50;;;22.90;51.40;;;;;;5070618;28;20191;-49
2022/03/03 10:03:00;;;;;;;2.65;1.38;;;22.80;51.40;;;;;;5071786;28;20222;-50
2022/03/03 10:05:35;;;;;;;3.00;1.50;;;22.80;51.40;;;;;;5071002;28;20244;-48
2022/03/03 10:08:09;;;;;;;4.57;1.52;;;22.80;51.40;;;;;;5072176;28;20202;-48
2022/03/03 10:10:41;;;;;;;2.63;1.60;;;22.70;51.30;;;;;;5071020;28;20686;-48
2022/03/03 10:13:14;;;;;;;3.25;1.50;;;22.70;51.40;;;;;;5071716;28;20230;-49
2022/03/03 10:15:47;;;;;;;3.28;1.60;;;22.70;51.40;;;;;;5071535;28;20191;-48
2022/03/03 10:18:21;;;;;;;3.22;1.60;;;22.60;51.40;;;;;;5071212;28;20187;-48
2022/03/03 10:20:54;;;;;;;2.38;1.40;;;22.60;51.40;;;;;;5070802;28;20266;-49
2022/03/03 10:23:28;;;;;;;2.65;1.60;;;22.60;51.40;;;;;;5071083;28;20645;-48
2022/03/03 10:25:59;;;;;;;1.88;1.40;;;22.60;51.50;;;;;;5070846;28;20227;-49
2022/03/03 10:28:32;;;;;;;3.70;1.60;;;22.50;51.50;;;;;;5070726;28;20210;-48
2022/03/03 10:31:06;;;;;;;3.03;1.52;;;22.50;51.50;;;;;;5070931;28;20187;-51
2022/03/03 10:33:38;;;;;;;2.08;1.08;;;22.50;51.50;;;;;;5071742;28;20271;-50
2022/03/03 10:36:14;;;;;;;2.80;1.30;;;22.40;51.50;;;;;;5070993;28;20264;-49
2022/03/03 10:38:51;;;;;;;2.13;1.33;;;22.40;51.50;;;;;;5070608;28;20209;-49
2022/03/03 10:41:46;;;;;;;3.47;1.48;;;22.40;51.50;;;;;;5071308;28;20273;-49
2022/03/03 10:44:19;;;;;;;1.98;1.30;;;22.30;51.50;;;;;;5052908;28;20187;-48
2022/03/03 10:47:07;;;;;;;2.40;1.35;;;22.30;51.50;;;;;;5070984;28;20223;-49
2022/03/03 10:49:39;;;;;;;2.35;1.25;;;22.30;51.60;;;;;;5070931;28;20864;-49
2022/03/03 10:52:17;;;;;;;2.08;1.40;;;22.30;51.60;;;;;;5071284;28;20221;-50
2022/03/03 10:54:59;;;;;;;4.03;1.50;;;22.20;51.50;;;;;;5053704;28;20237;-48
2022/03/03 10:57:36;;;;;;;2.72;1.40;;;22.20;51.50;;;;;;5053948;28;20414;-55
2022/03/03 11:00:11;;;;;;;2.40;1.40;;;22.20;51.50;;;;;;5052316;28;20226;-53
2022/03/03 11:02:46;;;;;;;3.17;1.70;;;22.20;51.60;;;;;;5052295;28;20264;-50
2022/03/03 11:05:17;;;;;;;1.98;1.20;;;22.10;51.60;;;;;;5055273;28;20241;-55
2022/03/03 11:07:49;;;;;;;3.25;1.60;;;22.10;51.60;;;;;;5062011;28;20199;-53
2022/03/03 11:10:21;;;;;;;1.92;1.30;;;22.10;51.60;;;;;;5060428;28;20223;-55
2022/03/03 11:12:52;;;;;;;3.50;1.30;;;22.10;51.70;;;;;;5059637;28;20211;-56
2022/03/03 11:15:25;;;;;;;3.40;1.33;;;22.00;51.60;;;;;;5060196;28;20268;-56
2022/03/03 11:17:57;;;;;;;1.77;1.45;;;22.00;51.70;;;;;;5059761;28;20246;-56
2022/03/03 11:20:28;;;;;;;2.00;1.13;;;22.00;51.70;;;;;;5059872;28;20654;-55
2022/03/03 11:23:00;;;;;;;2.67;1.40;;;21.90;51.60;;;;;;5062941;28;20265;-55
2022/03/03 11:25:34;;;;;;;3.35;1.52;;;21.90;51.70;;;;;;5071450;28;20206;-57
2022/03/03 11:28:09;;;;;;;2.72;1.30;;;21.90;51.70;;;;;;5071472;28;20195;-56
2022/03/03 11:30:40;;;;;;;3.15;1.45;;;21.90;51.70;;;;;;5071512;28;20285;-57
2022/03/03 11:33:33;;;;;;;3.65;1.38;;;21.80;51.70;;;;;;5071307;28;20264;-56
2022/03/03 11:36:05;;;;;;;3.50;1.50;;;21.80;51.80;;;;;;5070654;28;20289;-57
2022/03/03 11:38:47;;;;;;;2.95;1.50;;;21.80;51.80;;;;;;5070590;28;20207;-57
2022/03/03 11:41:19;;;;;;;2.88;1.40;;;21.80;51.80;;;;;;5070703;28;20194;-56
2022/03/03 11:43:52;;;;;;;3.55;1.52;;;21.70;51.80;;;;;;5071263;28;20216;-57
2022/03/03 11:46:49;;;;;;;2.03;1.40;;;21.70;51.80;;;;;;5071202;28;20199;-57
2022/03/03 11:49:22;;;;;;;3.70;1.48;;;21.70;51.80;;;;;;5063133;28;20606;-54
2022/03/03 11:51:56;;;;;;;2.28;1.48;;;21.70;51.80;;;;;;5071986;28;20227;-57
2022/03/03 11:54:31;;;;;;;2.80;1.40;;;21.60;51.80;;;;;;5068226;28;20245;-57
2022/03/03 11:57:32;;;;;;;4.90;1.50;;;21.60;51.90;;;;;;5051204;28;20531;-57
2022/03/03 12:00:07;;;;;;;4.18;1.70;;;21.60;51.90;;;;;;4989417;28;20201;-57
2022/03/03 12:02:40;;;;;;;2.88;1.42;;;21.50;51.80;;;;;;5041901;28;20215;-57
2022/03/03 12:05:40;;;;;;;3.10;1.33;;;21.50;51.80;;;;;;5051489;28;20579;-57
2022/03/03 12:08:33;;;;;;;1.90;1.08;;;21.50;51.90;;;;;;5054816;28;20190;-57
2022/03/03 12:11:09;;;;;;;2.45;1.10;;;21.50;51.90;;;;;;5070913;28;20199;-57
2022/03/03 12:13:51;;;;;;;2.33;1.27;;;21.40;51.90;;;;;;5070744;28;20241;-56
2022/03/03 12:16:32;;;;;;;2.20;1.30;;;21.40;51.90;;;;;;5070993;28;20603;-56
2022/03/03 12:19:36;;;;;;;4.07;1.38;;;21.40;52.00;;;;;;5069700;28;20183;-54
2022/03/03 12:22:26;;;;;;;1.52;1.02;;;21.30;51.90;;;;;;5069833;28;20223;-56
2022/03/03 12:24:57;;;;;;;2.10;1.30;;;21.30;51.90;;;;;;5069431;28;20199;-56
2022/03/03 12:27:28;;;;;;;1.40;1.00;;;21.30;51.90;;;;;;5070098;28;20199;-56
2022/03/03 12:29:59;;;;;;;2.97;1.63;;;21.30;52.00;;;;;;5070004;28;20198;-57
2022/03/03 12:32:51;;;;;;;1.80;1.20;;;21.20;52.00;;;;;;5070173;28;20211;-56
2022/03/03 12:35:29;;;;;;;2.10;1.00;;;21.20;52.00;;;;;;5070227;28;20227;-56
2022/03/03 12:38:04;;;;;;;1.85;1.10;;;21.20;52.00;;;;;;5069862;28;20198;-56
2022/03/03 12:40:36;;;;;;;3.03;1.20;;;21.20;52.00;;;;;;5070310;28;20198;-57
2022/03/03 12:43:15;;;;;;;2.70;1.13;;;21.20;52.00;;;;;;5070336;28;20226;-56
2022/03/03 12:45:48;;;;;;;4.43;1.33;;;21.10;52.00;;;;;;5070053;28;20198;-56
2022/03/03 12:48:30;;;;;;;1.50;1.00;;;21.10;52.00;;;;;;5070118;28;20209;-56
2022/03/03 12:51:06;;;;;;;2.05;1.05;;;21.10;52.10;;;;;;5069809;28;20198;-56
2022/03/03 12:53:43;;;;;;;2.20;1.02;;;21.10;52.10;;;;;;5069312;28;20214;-55
2022/03/03 12:56:26;;;;;;;1.20;1.00;;;21.10;52.10;;;;;;5069826;28;20191;-55
2022/03/03 12:58:58;;;;;;;2.35;1.10;;;21.00;52.10;;;;;;5069721;28;20564;-56
2022/03/03 13:01:29;;;;;;;2.17;1.10;;;21.00;52.10;;;;;;5069975;28;20205;-56
2022/03/03 13:04:03;;;;;;;2.28;1.27;;;21.00;52.20;;;;;;5069559;28;21059;-56
2022/03/03 13:06:35;;;;;;;1.10;1.00;;;21.00;52.20;;;;;;5069304;28;20610;-58
2022/03/03 13:09:09;;;;;;;2.45;1.23;;;21.00;52.20;;;;;;5069379;28;20279;-56
2022/03/03 13:11:40;;;;;;;1.85;1.27;;;20.90;52.20;;;;;;5069690;28;20214;-57
2022/03/03 13:14:11;;;;;;;2.00;1.05;;;20.90;52.10;;;;;;5069299;28;20229;-57
2022/03/03 13:16:43;;;;;;;1.55;1.08;;;20.90;52.20;;;;;;5069785;28;20680;-57
2022/03/03 13:19:14;;;;;;;1.48;1.08;;;20.90;52.20;;;;;;5069738;28;20199;-57
2022/03/03 13:21:46;;;;;;;1.75;1.15;;;20.80;52.20;;;;;;5069700;28;20768;-56
2022/03/03 13:24:26;;;;;;;1.63;1.02;;;20.80;52.20;;;;;;5069210;28;20190;-56
2022/03/03 13:26:57;;;;;;;3.25;1.00;;;20.80;52.20;;;;;;5069505;28;20237;-56